createdAt,value
2019-04-11T00:02:55.804Z,91.01
2019-04-11T00:08:01.811Z,90.61
2019-04-11T00:13:17.324Z,89.47
2019-04-11T00:18:15.000Z,90.00
2019-04-11T00:23:21.730Z,90.04
2019-04-11T00:28:29.848Z,90.52
2019-04-11T00:33:35.566Z,90.99
2019-04-11T00:38:42.822Z,90.70
2019-04-11T00:43:50.507Z,91.44
2019-04-11T00:48:56.117Z,91.36
2019-04-11T00:54:02.597Z,91.11
2019-04-11T00:59:08.396Z,91.10
2019-04-11T01:04:14.078Z,91.79
2019-04-11T01:09:20.086Z,91.40
2019-04-11T01:14:25.879Z,91.09
2019-04-11T01:19:31.598Z,89.27
2019-04-11T01:24:37.203Z,90.41
2019-04-11T01:29:43.925Z,90.23
2019-04-11T01:34:50.863Z,90.16
2019-04-11T01:40:01.553Z,90.47
2019-04-11T01:45:09.554Z,90.64
2019-04-11T01:50:16.871Z,91.34
2019-04-11T01:55:22.476Z,90.87
2019-04-11T02:00:36.521Z,91.18
2019-04-11T02:05:43.264Z,90.96
2019-04-11T02:10:50.852Z,91.30
2019-04-11T02:15:58.262Z,91.52
2019-04-11T02:21:03.863Z,91.55
2019-04-11T02:26:11.490Z,91.35
2019-04-11T02:31:19.572Z,91.08
2019-04-11T02:36:25.521Z,91.38
2019-04-11T02:41:35.106Z,91.36
2019-04-11T02:46:48.341Z,91.25
2019-04-11T02:51:47.912Z,91.02
2019-04-11T02:56:54.962Z,91.26
2019-04-11T03:02:01.406Z,91.53
2019-04-11T03:07:08.016Z,91.76
2019-04-11T03:12:15.507Z,91.79
2019-04-11T03:17:28.803Z,90.61
2019-04-11T03:22:29.866Z,90.24
2019-04-11T03:27:37.136Z,90.81
2019-04-11T03:38:12.458Z,90.56
2019-04-11T03:43:08.862Z,90.22
2019-04-11T03:48:21.868Z,90.78
2019-04-11T03:53:14.504Z,90.59
2019-04-11T03:58:21.760Z,90.61
2019-04-11T04:03:29.494Z,90.70
2019-04-11T04:08:36.367Z,90.33
2019-04-11T04:13:56.457Z,90.72
2019-04-11T04:19:09.748Z,90.83
2019-04-11T04:24:16.584Z,90.69
2019-04-11T04:29:25.089Z,89.46
2019-04-11T04:34:31.583Z,89.70
2019-04-11T04:39:39.763Z,89.94
2019-04-11T04:44:46.699Z,89.96
2019-04-11T04:49:54.473Z,89.31
2019-04-11T04:55:02.185Z,88.66
2019-04-11T05:00:09.295Z,85.28
2019-04-11T05:05:15.304Z,85.08
2019-04-11T05:10:22.117Z,83.49
2019-04-11T05:15:28.254Z,82.87
2019-04-11T05:20:34.287Z,84.87
2019-04-11T05:25:39.982Z,86.21
2019-04-11T05:30:47.161Z,86.85
2019-04-11T05:35:52.741Z,87.23
2019-04-11T05:40:59.839Z,87.58
2019-04-11T05:46:21.953Z,85.91
2019-04-11T05:51:13.097Z,90.91
2019-04-11T05:56:21.809Z,89.09
2019-04-11T06:01:32.186Z,86.41
2019-04-11T06:06:44.353Z,86.84
2019-04-11T06:11:57.211Z,86.32
2019-04-11T06:17:03.181Z,82.99
2019-04-11T06:22:10.789Z,85.53
2019-04-11T06:27:36.589Z,89.46
2019-04-11T06:32:58.358Z,89.46
2019-04-11T06:38:08.578Z,89.14
2019-04-11T06:43:21.615Z,87.77
2019-04-11T06:48:31.808Z,87.75
2019-04-11T06:53:39.965Z,88.71
2019-04-11T06:58:47.959Z,88.66
2019-04-11T07:04:05.025Z,89.24
2019-04-11T07:09:32.953Z,90.21
2019-04-11T07:14:47.493Z,90.18
2019-04-11T07:20:00.535Z,90.85
2019-04-11T07:25:18.147Z,91.05
2019-04-11T07:30:41.821Z,91.09
2019-04-11T07:36:05.961Z,91.62
2019-04-11T07:41:22.246Z,91.84
2019-04-11T07:46:55.833Z,90.71
2019-04-11T07:52:03.238Z,90.38
2019-04-11T07:57:22.623Z,90.22
2019-04-11T08:02:33.363Z,89.21
2019-04-11T08:07:55.656Z,89.05
2019-04-11T08:13:03.772Z,89.10
2019-04-11T08:18:14.627Z,89.33
2019-04-11T08:23:21.846Z,91.06
2019-04-11T08:28:28.862Z,91.07
2019-04-11T08:33:35.118Z,91.84
2019-04-11T08:38:40.778Z,93.37
2019-04-11T08:43:47.587Z,93.49
2019-04-11T08:49:10.979Z,92.39
2019-04-11T08:54:18.176Z,91.44
2019-04-11T08:59:41.767Z,90.72
2019-04-11T09:05:03.122Z,88.95
2019-04-11T09:10:11.665Z,88.82
2019-04-11T09:15:21.934Z,88.86
2019-04-11T09:20:29.773Z,89.77
2019-04-11T09:25:54.999Z,90.56
2019-04-11T09:31:14.951Z,91.57
2019-04-11T09:36:39.505Z,91.07
2019-04-11T09:41:50.028Z,92.33
2019-04-11T09:47:09.260Z,90.94
2019-04-11T09:52:19.219Z,90.88
2019-04-11T09:57:26.814Z,91.97
2019-04-11T10:02:33.943Z,91.30
2019-04-11T10:07:57.984Z,90.08
2019-04-11T10:13:18.617Z,90.38
2019-04-11T10:18:40.755Z,90.65
2019-04-11T10:23:51.376Z,90.60
2019-04-11T10:29:14.987Z,92.15
2019-04-11T10:34:22.057Z,92.19
2019-04-11T10:39:35.557Z,92.31
2019-04-11T10:45:02.593Z,91.57
2019-04-11T10:50:15.460Z,92.11
2019-04-11T10:55:39.846Z,90.52
2019-04-11T11:00:47.392Z,88.63
2019-04-11T11:05:57.642Z,91.03
2019-04-11T11:11:20.555Z,92.09
2019-04-11T11:16:29.227Z,92.36
2019-04-11T11:21:35.687Z,91.15
2019-04-11T11:26:43.172Z,89.77
2019-04-11T11:31:50.534Z,90.56
2019-04-11T11:37:14.600Z,90.76
2019-04-11T11:42:39.117Z,90.94
2019-04-11T11:47:53.237Z,90.77
2019-04-11T11:53:08.272Z,91.06
2019-04-11T11:58:28.280Z,90.75
2019-04-11T12:03:44.573Z,91.25
2019-04-11T12:09:07.975Z,91.41
2019-04-11T12:14:18.256Z,91.38
2019-04-11T12:19:25.314Z,91.82
2019-04-11T12:24:42.809Z,91.48
2019-04-11T12:29:53.496Z,91.81
2019-04-11T12:35:06.477Z,91.33
2019-04-11T12:40:16.736Z,92.39
2019-04-11T12:45:26.696Z,90.85
2019-04-11T12:50:51.157Z,91.21
2019-04-11T12:56:10.502Z,91.26
2019-04-11T13:01:23.344Z,91.02
2019-04-11T13:06:35.599Z,90.99
2019-04-11T13:11:45.419Z,91.17
2019-04-11T13:16:55.763Z,91.03
2019-04-11T13:22:08.733Z,92.87
2019-04-11T13:27:18.515Z,90.94
2019-04-11T13:32:34.474Z,90.75
2019-04-11T13:37:57.980Z,89.88
2019-04-11T13:43:21.518Z,85.42
2019-04-11T13:48:44.994Z,88.87
2019-04-11T13:54:09.679Z,80.73
2019-04-11T13:59:35.481Z,84.62
2019-04-11T14:04:49.504Z,84.69
2019-04-11T14:10:09.240Z,83.35
2019-04-11T14:15:20.327Z,82.33
2019-04-11T14:20:36.539Z,83.57
2019-04-11T14:25:51.095Z,81.99
2019-04-11T14:31:14.494Z,86.79
2019-04-11T14:36:38.065Z,83.88
2019-04-11T14:41:54.323Z,83.73
2019-04-11T14:47:07.617Z,88.83
2019-04-11T14:52:25.177Z,89.46
2019-04-11T14:57:53.604Z,88.76
2019-04-11T15:03:11.780Z,89.80
2019-04-11T15:08:25.121Z,89.46
2019-04-11T15:13:32.004Z,88.88
2019-04-11T15:18:39.178Z,88.64
2019-04-11T15:23:44.869Z,87.45
2019-04-11T15:28:51.950Z,85.84
2019-04-11T15:34:17.509Z,82.47
2019-04-11T15:39:44.594Z,82.70
2019-04-11T15:44:49.308Z,80.44
2019-04-11T15:50:12.836Z,85.81
2019-04-11T15:55:37.787Z,87.03
2019-04-11T16:00:51.099Z,87.46
2019-04-11T16:06:07.279Z,88.77
2019-04-11T16:11:20.254Z,89.67
2019-04-11T16:16:34.198Z,90.42
2019-04-11T16:21:54.923Z,90.26
2019-04-11T16:27:17.588Z,90.38
2019-04-11T16:32:23.837Z,91.18
2019-04-11T16:37:30.054Z,91.74
2019-04-11T16:42:37.119Z,93.20
2019-04-11T16:48:00.473Z,92.70
2019-04-11T16:53:10.325Z,92.61
2019-04-11T16:58:17.010Z,92.87
2019-04-11T17:03:24.761Z,92.57
2019-04-11T17:08:32.739Z,92.04
2019-04-11T17:13:38.779Z,92.07
2019-04-11T17:18:44.773Z,92.15
2019-04-11T17:23:50.498Z,91.94
2019-04-11T17:28:56.427Z,91.88
2019-04-11T17:34:02.795Z,92.21
2019-04-11T17:39:09.627Z,92.49
2019-04-11T17:44:15.347Z,91.51
2019-04-11T17:49:20.945Z,91.19
2019-04-11T17:54:26.395Z,91.33
2019-04-11T17:59:31.918Z,90.63
2019-04-11T18:04:37.356Z,90.14
2019-04-11T18:09:43.117Z,90.81
2019-04-11T18:14:48.715Z,90.31
2019-04-11T18:19:55.384Z,90.97
2019-04-11T18:25:00.982Z,90.90
2019-04-11T18:30:09.583Z,91.70
2019-04-11T18:35:15.119Z,91.96
2019-04-11T18:40:21.441Z,92.05
2019-04-11T18:45:27.142Z,92.61
2019-04-11T18:50:33.101Z,92.17
2019-04-11T18:55:38.744Z,91.78
2019-04-11T19:00:44.760Z,92.04
2019-04-11T19:05:50.388Z,91.98
2019-04-11T19:10:57.646Z,92.23
2019-04-11T19:16:03.278Z,92.05
2019-04-11T19:21:09.284Z,91.93
2019-04-11T19:26:15.328Z,91.85
2019-04-11T19:31:21.322Z,91.56
2019-04-11T19:36:26.870Z,92.04
2019-04-11T19:41:32.560Z,92.20
2019-04-11T19:46:40.859Z,91.05
2019-04-11T19:51:45.878Z,91.58
2019-04-11T19:57:03.160Z,92.21
2019-04-11T20:02:09.820Z,91.98
2019-04-11T20:07:15.546Z,92.21
2019-04-11T20:12:21.162Z,92.08
2019-04-11T20:17:26.860Z,92.18
2019-04-11T20:22:32.719Z,92.21
2019-04-11T20:27:38.903Z,92.48
2019-04-11T20:32:44.417Z,92.52
2019-04-11T20:37:50.016Z,92.19
2019-04-11T20:42:55.583Z,92.25
2019-04-11T20:48:01.460Z,92.89
2019-04-11T20:53:12.576Z,92.84
2019-04-11T20:58:14.318Z,92.44
2019-04-11T21:03:20.183Z,92.68
2019-04-11T21:08:25.943Z,92.08
2019-04-11T21:13:31.621Z,92.38
2019-04-11T21:18:37.399Z,92.69
2019-04-11T21:23:43.000Z,92.88
2019-04-11T21:28:48.740Z,92.94
2019-04-11T21:33:54.155Z,92.69
2019-04-11T21:39:03.574Z,92.04
2019-04-11T21:44:08.365Z,92.48
2019-04-11T21:49:13.922Z,92.46
2019-04-11T21:54:19.619Z,92.70
2019-04-11T21:59:25.183Z,92.23
2019-04-11T22:04:31.211Z,92.50
2019-04-11T22:09:36.844Z,91.71
2019-04-11T22:14:42.704Z,91.68
2019-04-11T22:19:48.645Z,91.57
2019-04-11T22:24:54.202Z,90.28
2019-04-11T22:29:59.896Z,91.47
2019-04-11T22:35:06.700Z,91.91
2019-04-11T22:40:13.347Z,91.95
2019-04-11T22:45:19.120Z,91.83
2019-04-11T22:50:24.704Z,91.12
2019-04-11T22:55:30.319Z,91.29
2019-04-11T23:00:36.002Z,91.08
2019-04-11T23:05:41.723Z,90.35
2019-04-11T23:10:47.443Z,91.16
2019-04-11T23:15:53.138Z,91.42
2019-04-11T23:20:58.962Z,90.64
2019-04-11T23:26:05.022Z,90.83
2019-04-11T23:31:10.622Z,91.20
2019-04-11T23:36:16.181Z,91.34
2019-04-11T23:41:21.916Z,90.92
2019-04-11T23:46:27.502Z,91.37
2019-04-11T23:51:33.028Z,90.65
2019-04-11T23:56:45.280Z,89.81
